Time;durP1;ratioP1;P1;durP2;ratioP2;P2;SDS_P1;SDS_P2;PMS_P1;PMS_P2;Temp;Humidity;BMP_temperature;BMP_pressure;BME280_temperature;BME280_humidity;BME280_pressure;Samples;Min_cycle;Max_cycle;Signal;HPM_P1;HPM_P2
2020/12/19 00:01:18;;;;;;;5.00;3.47;;;;;;;5.60;69.74;95896.09;5071707;28;20188;-77
2020/12/19 00:03:44;;;;;;;6.63;3.30;;;;;;;5.56;69.89;95899.00;5080151;28;20196;-78
2020/12/19 00:06:09;;;;;;;4.53;3.20;;;;;;;5.54;70.27;95904.25;5098410;28;20253;-78
2020/12/19 00:08:34;;;;;;;4.30;2.90;;;;;;;5.59;70.32;95894.47;5063106;28;20212;-78
2020/12/19 00:11:00;;;;;;;5.37;3.30;;;;;;;5.56;70.32;95894.66;5078794;28;20181;-77
2020/12/19 00:13:25;;;;;;;4.33;3.37;;;;;;;5.57;70.15;95893.75;5098113;28;20212;-77
2020/12/19 00:15:50;;;;;;;4.33;3.43;;;;;;;5.60;69.90;95890.94;5075395;28;20557;-77
2020/12/19 00:18:16;;;;;;;4.43;3.67;;;;;;;5.57;70.12;95892.94;5077118;28;20264;-79
2020/12/19 00:20:41;;;;;;;4.47;3.30;;;;;;;5.55;70.41;95892.19;5077637;28;20231;-77
2020/12/19 00:23:06;;;;;;;7.23;3.03;;;;;;;5.55;69.87;95894.78;5076227;28;20180;-78
2020/12/19 00:25:32;;;;;;;4.23;3.17;;;;;;;5.55;70.42;95892.19;5079456;28;20207;-78
2020/12/19 00:27:57;;;;;;;5.20;3.10;;;;;;;5.54;70.57;95881.06;5079800;28;20200;-77
2020/12/19 00:30:22;;;;;;;4.77;3.20;;;;;;;5.59;70.17;95876.44;5079121;28;20188;-78
2020/12/19 00:32:47;;;;;;;3.63;2.73;;;;;;;5.53;70.41;95876.84;5087815;28;20203;-78
2020/12/19 00:35:13;;;;;;;4.80;2.93;;;;;;;5.52;70.52;95871.81;5063102;28;20622;-78
2020/12/19 00:37:42;;;;;;;3.70;2.93;;;;;;;5.56;70.65;95880.94;5062891;28;20179;-78
2020/12/19 00:40:09;;;;;;;3.47;2.97;;;;;;;5.54;70.82;95867.38;5075108;28;20197;-77
2020/12/19 00:42:36;;;;;;;5.20;3.30;;;;;;;5.57;70.56;95870.56;5079203;28;20188;-77
2020/12/19 00:45:01;;;;;;;3.13;2.67;;;;;;;5.59;70.67;95868.69;5063042;28;20265;-78
2020/12/19 00:47:27;;;;;;;3.40;2.67;;;;;;;5.56;70.82;95868.91;5063006;28;20671;-78
2020/12/19 00:49:52;;;;;;;3.60;3.07;;;;;;;5.54;71.08;95857.88;5079489;28;20176;-77
2020/12/19 00:52:19;;;;;;;5.07;3.40;;;;;;;5.56;70.94;95853.44;5088269;28;20313;-78
2020/12/19 00:54:45;;;;;;;3.80;2.97;;;;;;;5.58;70.69;95861.09;5062847;28;20270;-78
2020/12/19 00:57:10;;;;;;;6.07;3.17;;;;;;;5.49;70.76;95859.16;5097801;28;20926;-77
2020/12/19 00:59:35;;;;;;;4.23;3.40;;;;;;;5.49;70.62;95857.41;5097472;28;20181;-78
2020/12/19 01:02:00;;;;;;;3.10;2.80;;;;;;;5.49;71.06;95856.59;5074912;28;20187;-78
2020/12/19 01:04:26;;;;;;;3.07;2.70;;;;;;;5.44;71.01;95845.78;5076153;28;20729;-77
2020/12/19 01:06:51;;;;;;;4.13;3.20;;;;;;;5.49;71.36;95849.69;5059737;28;20245;-78
2020/12/19 01:09:17;;;;;;;3.43;3.13;;;;;;;5.41;71.31;95851.97;5075950;28;20195;-78
2020/12/19 01:11:42;;;;;;;3.90;2.50;;;;;;;5.51;71.01;95847.81;5074918;28;20188;-78
2020/12/19 01:14:07;;;;;;;3.13;2.23;;;;;;;5.54;71.12;95849.34;5072355;28;20197;-78
2020/12/19 01:16:33;;;;;;;3.73;2.90;;;;;;;5.52;71.13;95851.22;5073042;28;20239;-78
2020/12/19 01:18:59;;;;;;;3.67;2.60;;;;;;;5.46;71.50;95851.63;5056074;28;20649;-77
2020/12/19 01:21:27;;;;;;;4.40;2.97;;;;;;;5.35;71.40;95845.50;5073902;28;20180;-77
2020/12/19 01:23:52;;;;;;;4.03;2.80;;;;;;;5.35;71.67;95853.22;5070945;28;20287;-78
2020/12/19 01:26:19;;;;;;;4.40;3.10;;;;;;;5.30;71.64;95850.16;5055587;28;20622;-78
2020/12/19 01:28:45;;;;;;;3.27;2.97;;;;;;;5.23;71.86;95850.69;5055662;28;20656;-77
2020/12/19 01:31:12;;;;;;;4.30;3.60;;;;;;;5.23;71.39;95845.53;5077198;28;20276;-78
2020/12/19 01:33:38;;;;;;;3.47;3.17;;;;;;;5.13;71.93;95847.94;5075759;28;20185;-79
2020/12/19 01:36:09;;;;;;;3.23;2.93;;;;;;;5.10;71.91;95845.56;5075670;28;20249;-77
2020/12/19 01:38:34;;;;;;;3.43;3.13;;;;;;;5.02;72.15;95840.94;5058863;28;20185;-79
2020/12/19 01:40:59;;;;;;;3.33;3.00;;;;;;;4.92;72.32;95836.53;5058916;28;20177;-78
2020/12/19 01:43:25;;;;;;;3.87;2.70;;;;;;;4.94;72.35;95844.97;5085833;28;20196;-78
2020/12/19 01:45:51;;;;;;;4.10;2.70;;;;;;;4.93;72.53;95843.34;5075835;28;20546;-79
2020/12/19 01:48:26;;;;;;;3.63;2.70;;;;;;;4.92;72.74;95841.69;5075519;28;20215;-76
2020/12/19 01:50:53;;;;;;;3.27;2.77;;;;;;;4.92;72.91;95847.66;5075389;28;20267;-78
2020/12/19 01:53:19;;;;;;;2.90;2.30;;;;;;;4.92;72.55;95837.38;5089986;28;20576;-78
2020/12/19 01:55:44;;;;;;;3.47;2.70;;;;;;;4.92;72.64;95839.13;5075382;28;20208;-77
2020/12/19 01:58:10;;;;;;;2.83;2.30;;;;;;;4.92;72.81;95839.13;5058754;28;20168;-77
2020/12/19 02:00:39;;;;;;;3.07;2.60;;;;;;;4.95;72.98;95837.19;5075284;28;20172;-78
2020/12/19 02:03:05;;;;;;;3.03;2.23;;;;;;;4.91;72.87;95838.31;5057357;28;20267;-77
2020/12/19 02:05:37;;;;;;;4.13;2.80;;;;;;;4.93;73.12;95841.59;5093035;28;20814;-78
2020/12/19 02:08:03;;;;;;;5.00;2.80;;;;;;;4.88;73.31;95837.69;5093153;28;20582;-77
2020/12/19 02:10:32;;;;;;;2.63;2.37;;;;;;;4.91;73.18;95829.75;5075126;28;20176;-78
2020/12/19 02:12:59;;;;;;;2.43;2.23;;;;;;;4.88;73.16;95835.94;5075167;28;20206;-78
2020/12/19 02:15:24;;;;;;;2.50;2.30;;;;;;;4.89;73.05;95826.47;5084070;28;20208;-78
2020/12/19 02:17:49;;;;;;;2.67;2.43;;;;;;;4.94;73.21;95822.63;5058119;28;20654;-78
2020/12/19 02:20:15;;;;;;;2.50;2.17;;;;;;;4.90;73.05;95825.53;5074750;28;20183;-78
2020/12/19 02:22:40;;;;;;;3.27;2.50;;;;;;;4.83;73.57;95823.38;5074973;28;20644;-78
2020/12/19 02:25:05;;;;;;;3.20;2.33;;;;;;;4.77;73.48;95813.53;5056985;28;20204;-78
2020/12/19 02:27:30;;;;;;;3.60;2.20;;;;;;;4.78;73.72;95820.31;5074628;28;20204;-78
2020/12/19 02:29:56;;;;;;;2.63;2.20;;;;;;;4.73;73.55;95806.94;5092522;28;20227;-78
2020/12/19 02:32:21;;;;;;;2.30;2.10;;;;;;;4.68;73.58;95811.59;5074664;28;20204;-78
2020/12/19 02:34:46;;;;;;;4.87;2.70;;;;;;;4.57;74.41;95816.63;5055174;28;20278;-78
2020/12/19 02:37:12;;;;;;;2.23;1.87;;;;;;;4.52;74.37;95813.56;5092412;28;20185;-78
2020/12/19 02:39:37;;;;;;;2.23;2.03;;;;;;;4.49;74.19;95811.19;5057860;28;20188;-78
2020/12/19 02:42:03;;;;;;;2.57;2.20;;;;;;;4.46;74.68;95816.53;5074764;28;20172;-77
2020/12/19 02:44:28;;;;;;;4.53;2.90;;;;;;;4.53;74.81;95810.06;5074580;28;20196;-77
2020/12/19 02:46:53;;;;;;;2.90;2.43;;;;;;;4.54;74.45;95809.13;5072367;28;20222;-77
2020/12/19 02:49:19;;;;;;;2.53;2.30;;;;;;;4.59;74.60;95809.63;5092221;28;20556;-78
2020/12/19 02:51:44;;;;;;;2.23;2.03;;;;;;;4.59;74.65;95804.47;5074171;28;20256;-78
2020/12/19 02:54:09;;;;;;;3.10;2.10;;;;;;;4.56;74.86;95799.56;5074639;28;20639;-78
2020/12/19 02:56:34;;;;;;;3.03;2.00;;;;;;;4.61;74.75;95796.69;5053265;28;20225;-78
2020/12/19 02:59:00;;;;;;;3.37;2.27;;;;;;;4.69;74.90;95804.69;5087320;28;20180;-78
2020/12/19 03:01:29;;;;;;;3.63;2.60;;;;;;;4.67;75.01;95801.38;5059109;28;20180;-77
2020/12/19 03:03:54;;;;;;;2.20;1.80;;;;;;;4.70;74.66;95802.03;5074454;28;20244;-78
2020/12/19 03:06:20;;;;;;;2.43;2.00;;;;;;;4.75;74.59;95805.06;5073908;28;20190;-78
2020/12/19 03:08:45;;;;;;;2.67;2.10;;;;;;;4.79;74.69;95801.38;5064668;28;20194;-79
2020/12/19 03:11:10;;;;;;;2.43;1.80;;;;;;;4.72;75.15;95800.16;5090836;28;20180;-78
2020/12/19 03:13:36;;;;;;;3.57;2.40;;;;;;;4.77;74.54;95799.81;5074074;28;20594;-78
2020/12/19 03:16:01;;;;;;;2.80;2.10;;;;;;;4.73;74.86;95800.97;5057392;28;20184;-79
2020/12/19 03:18:26;;;;;;;2.80;1.93;;;;;;;4.66;74.75;95800.56;5055043;28;20671;-78
2020/12/19 03:20:52;;;;;;;1.83;1.63;;;;;;;4.68;74.80;95803.03;5056727;28;20171;-77
2020/12/19 03:23:17;;;;;;;5.83;2.03;;;;;;;4.64;74.73;95805.00;5073874;28;20211;-77
2020/12/19 03:25:42;;;;;;;2.53;2.07;;;;;;;4.72;74.66;95802.72;5057151;28;20202;-77
2020/12/19 03:28:08;;;;;;;3.17;2.23;;;;;;;4.72;74.54;95800.16;5070643;28;20692;-78
2020/12/19 03:30:33;;;;;;;1.93;1.73;;;;;;;4.70;74.44;95799.44;5065484;28;20195;-78
2020/12/19 03:32:58;;;;;;;3.10;1.90;;;;;;;4.65;74.95;95805.81;5090565;28;20639;-78
2020/12/19 03:35:24;;;;;;;2.57;1.87;;;;;;;4.58;75.04;95796.88;5073665;28;20196;-78
2020/12/19 03:37:51;;;;;;;2.33;2.00;;;;;;;4.48;75.38;95794.94;5071615;28;20176;-76
2020/12/19 03:40:16;;;;;;;2.30;2.10;;;;;;;4.46;75.19;95789.06;5073498;28;20182;-79
2020/12/19 03:42:41;;;;;;;2.70;2.30;;;;;;;4.41;75.66;95795.44;5057091;28;20180;-77
2020/12/19 03:45:08;;;;;;;2.83;2.20;;;;;;;4.45;75.47;95791.75;5090163;28;20196;-78
2020/12/19 03:47:33;;;;;;;2.27;2.07;;;;;;;4.43;75.45;95789.28;5073682;28;20332;-77
2020/12/19 03:50:00;;;;;;;4.60;2.10;;;;;;;4.44;75.90;95782.41;5070988;28;20271;-78
2020/12/19 03:52:25;;;;;;;2.43;2.10;;;;;;;4.38;75.60;95782.81;5053331;28;20565;-78
2020/12/19 03:54:50;;;;;;;2.47;2.00;;;;;;;4.41;75.60;95782.59;5036964;28;20291;-78
2020/12/19 03:57:15;;;;;;;2.63;2.00;;;;;;;4.32;75.81;95783.22;5083539;28;20425;-78
2020/12/19 03:59:41;;;;;;;3.10;2.13;;;;;;;4.32;75.86;95781.47;5073258;28;20188;-78
2020/12/19 04:02:06;;;;;;;3.17;1.90;;;;;;;4.36;76.10;95774.38;5091693;28;20187;-78
2020/12/19 04:04:31;;;;;;;2.63;2.17;;;;;;;4.30;75.91;95774.78;5056443;28;20576;-78
2020/12/19 04:06:57;;;;;;;2.73;1.93;;;;;;;4.29;76.16;95776.53;5084211;28;20241;-78
2020/12/19 04:09:22;;;;;;;3.30;1.63;;;;;;;4.36;76.35;95772.63;5068033;28;20195;-77
2020/12/19 04:11:47;;;;;;;2.10;1.90;;;;;;;4.43;75.99;95773.88;5036627;28;20553;-78
2020/12/19 04:14:13;;;;;;;2.33;1.87;;;;;;;4.37;75.88;95776.03;5036619;28;20204;-76
2020/12/19 04:16:38;;;;;;;1.97;1.63;;;;;;;4.35;76.31;95776.13;5070837;28;20181;-78
2020/12/19 04:19:03;;;;;;;2.23;2.03;;;;;;;4.42;75.92;95772.22;5072016;28;20188;-79
2020/12/19 04:21:29;;;;;;;3.90;1.67;;;;;;;4.38;76.10;95773.34;5073224;28;20241;-77
2020/12/19 04:23:54;;;;;;;1.97;1.60;;;;;;;4.33;76.38;95782.28;5091399;28;20201;-78
2020/12/19 04:26:19;;;;;;;2.73;1.90;;;;;;;4.33;76.28;95772.84;5073204;28;20221;-78
2020/12/19 04:28:44;;;;;;;2.57;1.50;;;;;;;4.36;76.10;95774.38;5084251;28;20208;-78
2020/12/19 04:31:10;;;;;;;2.03;1.83;;;;;;;4.33;76.42;95772.00;5055495;28;20727;-77
2020/12/19 04:33:35;;;;;;;2.13;1.60;;;;;;;4.38;76.49;95775.09;5073086;28;20180;-77
2020/12/19 04:36:00;;;;;;;3.13;1.87;;;;;;;4.28;76.54;95772.31;5073271;28;20173;-78
2020/12/19 04:38:26;;;;;;;2.07;1.77;;;;;;;4.31;76.72;95766.97;5071977;28;20199;-79
2020/12/19 04:40:51;;;;;;;1.53;1.37;;;;;;;4.33;76.36;95767.72;5070686;28;20584;-78
2020/12/19 04:43:18;;;;;;;2.10;1.70;;;;;;;4.34;76.68;95759.06;5094960;28;20647;-78
2020/12/19 04:45:43;;;;;;;2.87;1.60;;;;;;;4.39;76.23;95766.44;5077018;28;20652;-77
2020/12/19 04:48:09;;;;;;;2.07;1.67;;;;;;;4.40;75.77;95768.91;5059896;28;20196;-78
2020/12/19 04:50:39;;;;;;;1.97;1.70;;;;;;;4.38;76.08;95763.06;5093209;28;20229;-78
2020/12/19 04:53:15;;;;;;;2.17;1.90;;;;;;;4.41;75.92;95769.72;5093638;28;20180;-80
2020/12/19 04:55:41;;;;;;;2.50;1.63;;;;;;;4.42;76.18;95769.66;5093681;28;20192;-76
2020/12/19 04:58:10;;;;;;;2.23;1.50;;;;;;;4.37;75.88;95771.69;5094766;28;20180;-79
2020/12/19 05:00:35;;;;;;;2.90;1.80;;;;;;;4.36;75.89;95771.81;5058898;28;20183;-78
2020/12/19 05:03:01;;;;;;;1.90;1.40;;;;;;;4.35;76.23;95773.56;5094421;28;20184;-78
2020/12/19 05:05:26;;;;;;;1.63;1.53;;;;;;;4.32;76.24;95771.19;5076489;28;20737;-78
2020/12/19 05:07:51;;;;;;;2.70;1.60;;;;;;;4.29;76.36;95765.44;5076358;28;20219;-78
2020/12/19 05:10:17;;;;;;;2.37;1.70;;;;;;;4.29;76.13;95768.81;5057238;28;20192;-77
2020/12/19 05:12:42;;;;;;;1.70;1.60;;;;;;;4.39;75.88;95774.97;5087648;28;20251;-78
2020/12/19 05:15:07;;;;;;;2.83;1.50;;;;;;;4.36;76.35;95757.22;5059561;28;20572;-78
2020/12/19 05:17:33;;;;;;;1.20;1.10;;;;;;;4.40;76.22;95755.22;5076280;28;20173;-78
2020/12/19 05:19:59;;;;;;;1.20;1.07;;;;;;;4.36;76.27;95758.97;5075970;28;20173;-78
2020/12/19 05:22:25;;;;;;;3.47;1.30;;;;;;;4.28;76.31;95756.09;5091891;28;20200;-78
2020/12/19 05:24:51;;;;;;;1.40;1.27;;;;;;;4.33;76.08;95760.00;5075992;28;20211;-78
2020/12/19 05:27:16;;;;;;;2.83;1.33;;;;;;;4.28;76.22;95754.34;5076216;28;20204;-78
2020/12/19 05:29:42;;;;;;;1.87;1.20;;;;;;;4.26;76.33;95758.75;5075721;28;20253;-79
2020/12/19 05:32:08;;;;;;;1.37;1.10;;;;;;;4.36;75.79;95761.53;5091884;28;20234;-77
2020/12/19 05:34:33;;;;;;;1.70;1.60;;;;;;;4.33;76.08;95757.44;5093752;28;20189;-78
2020/12/19 05:36:58;;;;;;;2.10;1.60;;;;;;;4.34;75.79;95756.50;5076098;28;20168;-78
2020/12/19 05:39:24;;;;;;;1.30;1.20;;;;;;;4.39;75.99;95753.59;5075870;28;20671;-78
2020/12/19 05:41:50;;;;;;;2.13;1.30;;;;;;;4.42;75.50;95755.97;5059083;28;20188;-77
2020/12/19 05:44:22;;;;;;;1.10;1.00;;;;;;;4.45;75.36;95763.47;5058072;28;20719;-78
2020/12/19 05:46:48;;;;;;;1.37;1.10;;;;;;;4.48;75.46;95765.81;5075466;28;20228;-78
2020/12/19 05:49:13;;;;;;;1.60;1.23;;;;;;;4.41;75.49;95759.44;5075586;28;20281;-77
2020/12/19 05:51:42;;;;;;;1.20;1.10;;;;;;;4.40;75.50;95756.06;5058139;28;20527;-78
2020/12/19 05:54:12;;;;;;;2.60;1.10;;;;;;;4.45;75.37;95755.75;5075094;28;20204;-78
2020/12/19 05:56:39;;;;;;;1.37;0.90;;;;;;;4.46;74.84;95763.38;5083462;28;20258;-78
2020/12/19 05:59:09;;;;;;;1.60;1.50;;;;;;;4.46;75.13;95757.41;5093335;28;20542;-79
2020/12/19 06:01:35;;;;;;;6.37;3.57;;;;;;;4.50;74.86;95769.09;5075444;28;20181;-79
2020/12/19 06:04:02;;;;;;;3.03;2.37;;;;;;;4.54;74.42;95761.09;5073358;28;20223;-78
2020/12/19 06:06:30;;;;;;;1.30;1.20;;;;;;;4.50;74.53;95759.63;5083461;28;20176;-78
2020/12/19 06:08:56;;;;;;;1.30;1.20;;;;;;;4.39;74.93;95762.13;5075249;28;20176;-78
2020/12/19 06:11:22;;;;;;;1.47;1.20;;;;;;;4.40;74.62;95768.09;5075406;28;20192;-78
2020/12/19 06:13:53;;;;;;;1.90;1.40;;;;;;;4.31;74.59;95759.25;5077446;28;20710;-78
2020/12/19 06:16:18;;;;;;;1.27;1.00;;;;;;;4.36;75.22;95766.66;5077823;28;20219;-78
2020/12/19 06:18:54;;;;;;;1.17;1.00;;;;;;;4.57;74.18;95757.47;5074960;28;20660;-78
2020/12/19 06:21:19;;;;;;;1.30;1.00;;;;;;;4.50;74.46;95763.97;5093344;28;20317;-78
2020/12/19 06:23:45;;;;;;;2.43;1.20;;;;;;;4.45;74.14;95768.63;5074965;28;20287;-77
2020/12/19 06:26:11;;;;;;;1.40;1.30;;;;;;;4.42;74.27;95768.84;5090856;28;20188;-77
2020/12/19 06:28:43;;;;;;;1.47;1.20;;;;;;;4.43;74.19;95775.63;5074294;28;20204;-78
2020/12/19 06:31:18;;;;;;;2.00;1.20;;;;;;;4.46;74.18;95772.81;5093066;28;20678;-79
2020/12/19 06:33:52;;;;;;;2.27;1.40;;;;;;;4.42;74.17;95769.66;5058043;28;20192;-79
2020/12/19 06:36:24;;;;;;;1.93;1.10;;;;;;;4.58;73.62;95774.53;5072623;28;20196;-78
2020/12/19 06:38:55;;;;;;;2.60;0.90;;;;;;;4.68;73.05;95773.00;5057409;28;20739;-77
2020/12/19 06:41:42;;;;;;;3.20;1.17;;;;;;;4.61;73.28;95774.34;5092860;28;20173;-78
2020/12/19 06:44:19;;;;;;;1.00;0.90;;;;;;;4.65;73.12;95762.91;5091960;28;20204;-78
2020/12/19 06:46:45;;;;;;;1.03;0.93;;;;;;;4.60;72.99;95759.84;5089892;28;20235;-78
2020/12/19 06:49:26;;;;;;;1.23;0.90;;;;;;;4.59;72.93;95758.19;5081990;28;20199;-78
2020/12/19 06:52:11;;;;;;;1.00;0.90;;;;;;;4.69;72.66;95758.41;5074379;28;20184;-79
2020/12/19 06:54:39;;;;;;;1.37;1.07;;;;;;;4.71;72.49;95757.34;5057217;28;20241;-79
2020/12/19 06:57:06;;;;;;;1.60;1.33;;;;;;;4.72;72.64;95759.00;5055899;28;20192;-79
2020/12/19 06:59:33;;;;;;;1.70;1.53;;;;;;;4.71;72.42;95756.53;5073783;28;20644;-78
2020/12/19 07:02:15;;;;;;;2.20;1.63;;;;;;;4.80;72.13;95759.28;5092431;28;20172;-78
2020/12/19 07:04:41;;;;;;;2.67;1.43;;;;;;;4.79;72.17;95760.22;5074149;28;20223;-79
2020/12/19 07:07:09;;;;;;;1.70;1.30;;;;;;;4.76;72.30;95760.41;5070733;28;20671;-79
2020/12/19 07:09:35;;;;;;;1.40;1.10;;;;;;;4.73;72.34;95763.22;5066614;28;20237;-80
2020/12/19 07:12:01;;;;;;;1.03;0.93;;;;;;;4.89;71.70;95769.88;5035808;28;20177;-78
2020/12/19 07:14:38;;;;;;;1.13;0.83;;;;;;;4.90;70.81;95763.78;5053963;28;20205;-78
2020/12/19 07:17:17;;;;;;;2.13;1.07;;;;;;;4.82;71.86;95765.13;5053910;28;20541;-78
2020/12/19 07:19:42;;;;;;;2.03;1.37;;;;;;;4.85;71.65;95764.09;5063728;28;20659;-78
2020/12/19 07:22:09;;;;;;;3.37;1.50;;;;;;;4.83;71.62;95771.09;5069777;28;20180;-79
2020/12/19 07:24:34;;;;;;;2.80;1.73;;;;;;;4.86;71.75;95775.19;5053928;28;20201;-78
2020/12/19 07:26:59;;;;;;;2.83;1.70;;;;;;;4.84;71.88;95777.88;5037119;28;20213;-79
2020/12/19 07:29:25;;;;;;;1.63;1.47;;;;;;;4.94;71.62;95789.19;5039323;28;20219;-78
2020/12/19 07:31:52;;;;;;;1.87;1.30;;;;;;;4.89;71.36;95780.97;5067464;28;20194;-78
2020/12/19 07:34:18;;;;;;;2.03;1.53;;;;;;;4.78;71.76;95786.88;5073888;28;20224;-79
2020/12/19 07:36:45;;;;;;;2.20;1.57;;;;;;;4.71;71.96;95777.13;5090775;28;20671;-79
2020/12/19 07:39:11;;;;;;;3.13;1.93;;;;;;;4.68;72.14;95790.16;5091436;28;20548;-79
2020/12/19 07:41:37;;;;;;;2.57;1.80;;;;;;;4.64;72.64;95787.00;5068395;28;20306;-78
2020/12/19 07:44:13;;;;;;;2.93;1.70;;;;;;;4.63;72.65;95789.69;5052104;28;20659;-78
2020/12/19 07:46:55;;;;;;;1.97;1.30;;;;;;;4.56;72.78;95786.69;5091933;28;20271;-79
2020/12/19 07:49:32;;;;;;;1.40;1.30;;;;;;;4.55;72.78;95788.44;5073399;28;20556;-77
2020/12/19 07:52:12;;;;;;;1.80;1.30;;;;;;;4.58;72.71;95792.56;5065214;28;20181;-79
2020/12/19 07:54:39;;;;;;;2.40;1.20;;;;;;;4.62;72.63;95795.75;5091396;28;20252;-77
2020/12/19 07:57:05;;;;;;;3.43;1.33;;;;;;;4.65;72.50;95791.22;5073670;28;20169;-78
2020/12/19 07:59:31;;;;;;;2.10;1.63;;;;;;;4.61;72.93;95797.50;5056612;28;20218;-77
2020/12/19 08:02:00;;;;;;;1.97;1.77;;;;;;;4.65;72.32;95796.34;5072697;28;20192;-78
2020/12/19 08:04:26;;;;;;;2.40;1.87;;;;;;;4.64;72.94;95794.72;5056543;28;20249;-77
2020/12/19 08:06:51;;;;;;;3.10;1.87;;;;;;;4.67;72.44;95794.50;5090252;28;20645;-77
2020/12/19 08:09:20;;;;;;;3.33;1.57;;;;;;;4.68;72.82;95803.03;5093358;28;20190;-77
2020/12/19 08:11:47;;;;;;;1.83;1.70;;;;;;;4.70;72.66;95807.16;5071991;28;20600;-77
2020/12/19 08:14:19;;;;;;;1.63;1.30;;;;;;;4.74;72.13;95803.44;5091739;28;20216;-78
2020/12/19 08:16:45;;;;;;;1.20;1.10;;;;;;;4.72;72.21;95807.88;5077460;28;20183;-78
2020/12/19 08:19:24;;;;;;;1.23;1.10;;;;;;;4.77;72.26;95808.41;5077110;28;20185;-77
2020/12/19 08:21:58;;;;;;;1.33;1.23;;;;;;;4.83;71.49;95807.13;5094163;28;20195;-77
2020/12/19 08:24:23;;;;;;;2.30;1.70;;;;;;;4.79;72.34;95806.53;5076469;28;20211;-78
2020/12/19 08:26:49;;;;;;;29.10;13.50;;;;;;;4.89;71.86;95799.00;5060779;28;20176;-77
2020/12/19 08:29:14;;;;;;;22.07;11.10;;;;;;;4.90;71.80;95802.38;5059979;28;20196;-78
2020/12/19 08:31:39;;;;;;;7.87;4.87;;;;;;;4.99;71.60;95801.75;5077199;28;20184;-78
2020/12/19 08:34:12;;;;;;;3.53;2.10;;;;;;;5.08;71.46;95806.25;5071965;28;20205;-78
2020/12/19 08:36:45;;;;;;;1.83;1.37;;;;;;;5.25;71.09;95799.91;5048903;28;20205;-79
2020/12/19 08:39:12;;;;;;;0.93;0.90;;;;;;;5.27;71.14;95809.16;5074967;28;20660;-78
2020/12/19 08:41:37;;;;;;;1.30;1.20;;;;;;;5.36;70.99;95805.09;5058845;28;20184;-79
2020/12/19 08:44:02;;;;;;;2.03;1.30;;;;;;;5.65;68.84;95800.44;5074561;28;20668;-78
2020/12/19 08:46:29;;;;;;;2.10;1.27;;;;;;;5.68;69.34;95805.38;5094843;28;20180;-79
2020/12/19 08:48:59;;;;;;;1.30;1.20;;;;;;;5.75;68.89;95809.16;5076680;28;20230;-78
2020/12/19 08:51:25;;;;;;;1.53;1.10;;;;;;;5.93;67.67;95814.75;5093707;28;20626;-78
2020/12/19 08:53:50;;;;;;;1.43;1.30;;;;;;;6.08;66.94;95812.78;5078053;28;20200;-78
2020/12/19 08:56:25;;;;;;;1.30;1.20;;;;;;;6.19;66.15;95808.50;5059110;28;20267;-78
2020/12/19 08:58:54;;;;;;;1.20;1.10;;;;;;;6.44;64.04;95815.19;5060519;28;20291;-78
2020/12/19 09:01:20;;;;;;;1.10;1.00;;;;;;;6.49;64.29;95820.84;5060104;28;20184;-78
2020/12/19 09:03:45;;;;;;;1.23;1.00;;;;;;;6.66;63.24;95823.91;5076509;28;20230;-78
2020/12/19 09:06:12;;;;;;;1.40;1.10;;;;;;;6.74;63.05;95824.97;5075424;28;20226;-78
2020/12/19 09:08:39;;;;;;;5.57;5.13;;;;;;;6.87;62.34;95831.75;5055978;28;20205;-78
2020/12/19 09:11:07;;;;;;;2.17;1.10;;;;;;;6.97;61.86;95823.16;5056405;28;20181;-78
2020/12/19 09:13:33;;;;;;;3.30;3.10;;;;;;;7.08;61.49;95828.34;5072880;28;20177;-80
2020/12/19 09:16:09;;;;;;;2.20;2.00;;;;;;;7.21;60.78;95827.38;5041014;28;20262;-78
2020/12/19 09:18:38;;;;;;;1.73;1.63;;;;;;;7.32;60.68;95829.94;5059337;28;20576;-79
2020/12/19 09:21:06;;;;;;;2.13;1.70;;;;;;;7.33;60.24;95829.84;5076326;28;20628;-78
2020/12/19 09:23:32;;;;;;;1.77;1.50;;;;;;;7.34;60.56;95833.25;5059362;28;20242;-78
2020/12/19 09:25:59;;;;;;;1.47;1.30;;;;;;;7.45;59.85;95830.63;5074641;28;20180;-79
2020/12/19 09:28:25;;;;;;;1.40;1.30;;;;;;;7.51;59.65;95824.97;5073960;28;20875;-78
2020/12/19 09:30:54;;;;;;;1.40;1.30;;;;;;;7.55;60.47;95825.53;5092731;28;20274;-78
2020/12/19 09:33:20;;;;;;;1.93;1.50;;;;;;;7.63;58.86;95831.75;5076259;28;20616;-77
2020/12/19 09:35:46;;;;;;;1.57;1.47;;;;;;;7.71;58.49;95831.13;5075726;28;20228;-78
2020/12/19 09:38:12;;;;;;;1.80;1.20;;;;;;;7.79;57.82;95833.09;5084325;28;20624;-77
2020/12/19 09:40:37;;;;;;;1.20;1.10;;;;;;;7.84;57.37;95823.19;5075665;28;20180;-77
2020/12/19 09:43:03;;;;;;;1.70;1.50;;;;;;;7.95;57.34;95820.56;5092907;28;20180;-76
2020/12/19 09:45:28;;;;;;;2.23;1.60;;;;;;;7.99;57.41;95816.78;5074271;28;20201;-77
2020/12/19 09:47:55;;;;;;;2.43;1.67;;;;;;;8.05;57.11;95810.31;5071818;28;20205;-78
2020/12/19 09:50:21;;;;;;;2.00;1.80;;;;;;;8.22;55.40;95820.09;5090263;28;20176;-77
2020/12/19 09:52:46;;;;;;;2.53;1.97;;;;;;;8.18;56.08;95821.28;5075498;28;20184;-77
2020/12/19 09:55:11;;;;;;;1.70;1.60;;;;;;;8.32;54.99;95815.78;5075632;28;20282;-78
2020/12/19 09:57:37;;;;;;;1.30;1.20;;;;;;;8.38;55.29;95820.47;5091309;28;20308;-77
2020/12/19 10:00:05;;;;;;;2.03;1.50;;;;;;;8.40;54.34;95812.59;5075176;28;20180;-77
2020/12/19 10:02:30;;;;;;;2.40;1.87;;;;;;;8.45;54.64;95818.19;5075409;28;20184;-77
2020/12/19 10:04:55;;;;;;;3.23;2.40;;;;;;;8.45;54.61;95813.84;5074843;28;20196;-78
2020/12/19 10:07:21;;;;;;;4.70;2.93;;;;;;;8.57;54.29;95812.00;5090787;28;20691;-77
2020/12/19 10:09:46;;;;;;;3.37;2.50;;;;;;;8.45;54.35;95823.38;5074944;28;20192;-78
2020/12/19 10:12:11;;;;;;;2.57;2.37;;;;;;;8.51;54.65;95817.69;5075241;28;20168;-77
2020/12/19 10:14:37;;;;;;;3.30;2.60;;;;;;;8.58;54.64;95818.00;5058432;28;20671;-78
2020/12/19 10:17:02;;;;;;;3.33;2.60;;;;;;;8.53;54.33;95810.63;5075142;28;20185;-79
2020/12/19 10:19:27;;;;;;;3.03;2.47;;;;;;;8.58;54.16;95808.47;5057196;28;20192;-77
2020/12/19 10:21:53;;;;;;;2.67;2.13;;;;;;;8.56;54.49;95800.00;5071847;28;20268;-78
2020/12/19 10:24:18;;;;;;;2.37;2.17;;;;;;;8.61;54.64;95804.81;5054734;28;20208;-79
2020/12/19 10:26:47;;;;;;;2.67;2.00;;;;;;;8.62;54.88;95803.84;5055286;28;20177;-77
2020/12/19 10:29:13;;;;;;;3.40;2.30;;;;;;;8.70;53.81;95802.25;5042560;28;20185;-76
2020/12/19 10:31:38;;;;;;;2.30;2.10;;;;;;;8.79;53.92;95796.28;5088620;28;20184;-76
2020/12/19 10:34:04;;;;;;;2.50;2.00;;;;;;;8.80;54.08;95805.69;5066900;28;20672;-77
2020/12/19 10:36:29;;;;;;;2.87;1.97;;;;;;;8.59;55.02;95804.13;5073724;28;20177;-78
2020/12/19 10:38:55;;;;;;;2.47;1.80;;;;;;;8.70;54.75;95799.66;5072875;28;20184;-78
2020/12/19 10:41:20;;;;;;;3.10;1.80;;;;;;;8.74;55.05;95802.78;5064470;28;20269;-77
2020/12/19 10:43:46;;;;;;;1.77;1.43;;;;;;;8.82;54.32;95799.56;5074391;28;20644;-78
2020/12/19 10:46:11;;;;;;;2.07;1.80;;;;;;;8.87;54.60;95795.66;5074808;28;20191;-77
2020/12/19 10:48:36;;;;;;;1.43;1.33;;;;;;;8.75;54.37;95797.50;5091229;28;20232;-77
2020/12/19 10:51:02;;;;;;;2.10;1.80;;;;;;;8.59;54.76;95794.59;5090244;28;20542;-78
2020/12/19 10:53:27;;;;;;;2.00;1.80;;;;;;;8.55;55.92;95797.53;5057497;28;20218;-78
2020/12/19 10:55:53;;;;;;;3.13;2.20;;;;;;;8.44;55.73;95788.09;5092514;28;20242;-77
2020/12/19 10:58:18;;;;;;;2.80;2.20;;;;;;;8.57;56.28;95791.31;5092485;28;20181;-78
2020/12/19 11:00:44;;;;;;;4.00;2.20;;;;;;;8.53;56.23;95789.91;5071874;28;20200;-78
2020/12/19 11:03:09;;;;;;;2.70;1.97;;;;;;;8.54;56.23;95791.53;5070881;28;20185;-76
2020/12/19 11:05:41;;;;;;;5.00;2.60;;;;;;;8.55;56.45;95806.13;5064828;28;20235;-76
2020/12/19 11:08:07;;;;;;;2.20;1.90;;;;;;;8.60;56.01;95800.56;5092170;28;20325;-77
2020/12/19 11:10:33;;;;;;;4.10;3.80;;;;;;;8.65;56.19;95794.03;5057257;28;20233;-76
2020/12/19 11:13:03;;;;;;;2.53;2.33;;;;;;;8.69;56.18;95794.63;5065188;28;20255;-77
2020/12/19 11:15:29;;;;;;;3.37;2.80;;;;;;;8.71;55.61;95790.94;5057789;28;20292;-78
2020/12/19 11:17:54;;;;;;;3.13;2.10;;;;;;;8.83;56.10;95793.44;5074124;28;20172;-77
2020/12/19 11:20:19;;;;;;;2.63;2.10;;;;;;;8.90;55.18;95791.97;5073843;28;20236;-77
2020/12/19 11:22:45;;;;;;;3.67;1.77;;;;;;;9.03;55.56;95790.78;5052487;28;20177;-78
2020/12/19 11:25:10;;;;;;;3.57;3.00;;;;;;;9.06;55.86;95781.94;5088360;28;20492;-77
2020/12/19 11:27:35;;;;;;;2.53;2.17;;;;;;;9.11;55.74;95779.78;5073951;28;20285;-78
2020/12/19 11:30:00;;;;;;;3.43;1.90;;;;;;;9.16;55.15;95780.19;5072619;28;20192;-78
2020/12/19 11:32:26;;;;;;;2.00;1.80;;;;;;;9.27;55.15;95774.88;5066000;28;20256;-77
2020/12/19 11:34:51;;;;;;;3.07;2.00;;;;;;;9.34;54.84;95770.78;5091961;28;20227;-78
2020/12/19 11:37:16;;;;;;;2.33;2.00;;;;;;;9.42;54.29;95764.13;5090519;28;20550;-76
2020/12/19 11:39:42;;;;;;;3.33;1.80;;;;;;;9.56;53.80;95766.34;5073569;28;20249;-77